sensor_id;sensor_type;location;lat;lon;timestamp;pressure;altitude;pressure_sealevel;temperature;humidity
33161;BME280;19522;45.656;11.302;2022-12-22T00:01:28;98505.44;;;3.99;92.85
33161;BME280;19522;45.656;11.302;2022-12-22T00:04:12;98556.56;;;4.37;93.04
33161;BME280;19522;45.656;11.302;2022-12-22T00:06:56;98497.19;;;4.11;92.29
33161;BME280;19522;45.656;11.302;2022-12-22T00:09:40;98553.69;;;4.48;92.25
33161;BME280;19522;45.656;11.302;2022-12-22T00:12:25;98549.84;;;4.51;92.10
33161;BME280;19522;45.656;11.302;2022-12-22T00:15:14;98552.97;;;4.56;91.71
33161;BME280;19522;45.656;11.302;2022-12-22T00:18:00;98547.38;;;4.30;91.52
33161;BME280;19522;45.656;11.302;2022-12-22T00:20:45;98540.78;;;4.04;94.08
33161;BME280;19522;45.656;11.302;2022-12-22T00:23:29;98533.56;;;4.15;93.76
33161;BME280;19522;45.656;11.302;2022-12-22T00:26:13;98534.66;;;4.32;92.23
33161;BME280;19522;45.656;11.302;2022-12-22T00:28:58;98536.63;;;4.30;92.06
33161;BME280;19522;45.656;11.302;2022-12-22T00:31:42;98533.50;;;4.34;91.56
33161;BME280;19522;45.656;11.302;2022-12-22T00:34:27;98538.34;;;4.21;91.63
33161;BME280;19522;45.656;11.302;2022-12-22T00:37:12;98524.78;;;4.23;91.34
33161;BME280;19522;45.656;11.302;2022-12-22T00:40:00;98541.78;;;4.13;91.29
33161;BME280;19522;45.656;11.302;2022-12-22T00:42:44;98456.44;;;3.78;91.39
33161;BME280;19522;45.656;11.302;2022-12-22T00:45:28;98533.72;;;4.13;92.02
33161;BME280;19522;45.656;11.302;2022-12-22T00:48:23;98531.28;;;4.20;91.43
33161;BME280;19522;45.656;11.302;2022-12-22T00:51:08;98532.97;;;4.21;91.35
33161;BME280;19522;45.656;11.302;2022-12-22T00:53:52;98530.75;;;4.07;91.74
33161;BME280;19522;45.656;11.302;2022-12-22T00:56:36;98527.63;;;4.11;91.79
33161;BME280;19522;45.656;11.302;2022-12-22T00:59:20;98494.03;;;3.78;92.39
33161;BME280;19522;45.656;11.302;2022-12-22T01:02:04;98499.09;;;3.81;92.51
33161;BME280;19522;45.656;11.302;2022-12-22T01:04:48;98529.09;;;3.66;93.52
33161;BME280;19522;45.656;11.302;2022-12-22T01:07:32;98478.78;;;2.90;96.93
33161;BME280;19522;45.656;11.302;2022-12-22T01:10:16;98500.41;;;3.27;97.02
33161;BME280;19522;45.656;11.302;2022-12-22T01:13:09;98529.38;;;3.43;97.07
33161;BME280;19522;45.656;11.302;2022-12-22T01:15:53;98481.34;;;3.31;96.91
33161;BME280;19522;45.656;11.302;2022-12-22T01:18:37;98516.53;;;3.57;96.41
33161;BME280;19522;45.656;11.302;2022-12-22T01:21:21;98495.88;;;3.38;96.69
33161;BME280;19522;45.656;11.302;2022-12-22T01:24:12;98525.84;;;3.72;96.16
33161;BME280;19522;45.656;11.302;2022-12-22T01:26:57;98356.50;;;2.77;94.74
33161;BME280;19522;45.656;11.302;2022-12-22T01:29:41;98519.06;;;3.88;94.10
33161;BME280;19522;45.656;11.302;2022-12-22T01:32:26;98526.81;;;3.91;93.76
33161;BME280;19522;45.656;11.302;2022-12-22T01:35:32;98530.97;;;3.46;94.33
33161;BME280;19522;45.656;11.302;2022-12-22T01:38:17;98480.03;;;2.76;97.18
33161;BME280;19522;45.656;11.302;2022-12-22T01:41:02;98524.72;;;3.26;97.93
33161;BME280;19522;45.656;11.302;2022-12-22T01:43:47;98472.16;;;3.23;96.55
33161;BME280;19522;45.656;11.302;2022-12-22T01:46:35;98517.91;;;3.12;96.94
33161;BME280;19522;45.656;11.302;2022-12-22T01:49:28;98522.84;;;2.97;99.13
33161;BME280;19522;45.656;11.302;2022-12-22T01:52:15;98461.38;;;2.24;100.00
33161;BME280;19522;45.656;11.302;2022-12-22T01:55:04;98497.13;;;2.34;100.00
33161;BME280;19522;45.656;11.302;2022-12-22T01:57:51;98526.38;;;2.57;100.00
33161;BME280;19522;45.656;11.302;2022-12-22T02:00:35;98499.06;;;2.73;100.00
33161;BME280;19522;45.656;11.302;2022-12-22T02:03:20;98514.78;;;2.97;100.00
33161;BME280;19522;45.656;11.302;2022-12-22T02:12:10;98485.72;;;3.32;97.83
33161;BME280;19522;45.656;11.302;2022-12-22T02:15:06;98442.09;;;3.20;96.65
33161;BME280;19522;45.656;11.302;2022-12-22T02:18:17;98495.47;;;3.52;96.40
33161;BME280;19522;45.656;11.302;2022-12-22T02:21:13;98491.81;;;3.53;96.22
33161;BME280;19522;45.656;11.302;2022-12-22T02:24:12;98501.97;;;3.40;96.75
33161;BME280;19522;45.656;11.302;2022-12-22T02:27:01;98499.56;;;3.17;97.46
33161;BME280;19522;45.656;11.302;2022-12-22T02:29:52;98496.72;;;3.28;98.20
33161;BME280;19522;45.656;11.302;2022-12-22T02:32:41;98466.78;;;3.14;98.08
33161;BME280;19522;45.656;11.302;2022-12-22T02:35:26;98427.38;;;3.04;97.31
33161;BME280;19522;45.656;11.302;2022-12-22T02:41:23;98482.75;;;3.54;97.04
33161;BME280;19522;45.656;11.302;2022-12-22T02:47:16;98474.69;;;3.64;96.33
33161;BME280;19522;45.656;11.302;2022-12-22T02:50:12;98436.97;;;3.46;96.14
33161;BME280;19522;45.656;11.302;2022-12-22T02:53:01;98481.59;;;3.67;96.17
33161;BME280;19522;45.656;11.302;2022-12-22T02:55:46;98464.38;;;3.50;96.41
33161;BME280;19522;45.656;11.302;2022-12-22T02:58:32;98367.22;;;2.68;97.43
33161;BME280;19522;45.656;11.302;2022-12-22T03:01:17;98481.19;;;3.32;99.34
33161;BME280;19522;45.656;11.302;2022-12-22T03:04:02;98475.53;;;3.55;98.79
33161;BME280;19522;45.656;11.302;2022-12-22T03:06:46;98419.44;;;3.32;98.10
33161;BME280;19522;45.656;11.302;2022-12-22T03:09:30;98404.91;;;3.25;97.72
33161;BME280;19522;45.656;11.302;2022-12-22T03:12:14;98475.50;;;3.74;97.19
33161;BME280;19522;45.656;11.302;2022-12-22T03:14:58;98411.56;;;3.31;97.08
33161;BME280;19522;45.656;11.302;2022-12-22T03:17:42;98424.66;;;3.43;96.90
33161;BME280;19522;45.656;11.302;2022-12-22T03:20:26;98454.59;;;3.68;96.82
33161;BME280;19522;45.656;11.302;2022-12-22T03:23:10;98468.13;;;3.86;95.93
33161;BME280;19522;45.656;11.302;2022-12-22T03:25:54;98471.97;;;3.84;96.04
33161;BME280;19522;45.656;11.302;2022-12-22T03:28:27;98426.25;;;3.17;97.75
33161;BME280;19522;45.656;11.302;2022-12-22T03:30:58;98463.69;;;3.48;99.43
33161;BME280;19522;45.656;11.302;2022-12-22T03:33:24;98410.56;;;3.32;98.93
33161;BME280;19522;45.656;11.302;2022-12-22T03:35:50;98463.34;;;3.70;98.12
33161;BME280;19522;45.656;11.302;2022-12-22T03:38:15;98471.13;;;3.83;97.80
33161;BME280;19522;45.656;11.302;2022-12-22T03:40:41;98475.19;;;3.87;97.55
33161;BME280;19522;45.656;11.302;2022-12-22T03:43:10;98471.13;;;3.73;97.37
33161;BME280;19522;45.656;11.302;2022-12-22T03:46:02;98373.13;;;3.30;96.87
33161;BME280;19522;45.656;11.302;2022-12-22T03:48:46;98473.78;;;3.93;96.15
33161;BME280;19522;45.656;11.302;2022-12-22T03:51:32;98466.53;;;4.03;95.42
33161;BME280;19522;45.656;11.302;2022-12-22T03:53:57;98457.50;;;3.95;94.98
33161;BME280;19522;45.656;11.302;2022-12-22T03:56:23;98449.31;;;3.96;95.17
33161;BME280;19522;45.656;11.302;2022-12-22T03:58:48;98462.59;;;3.98;95.08
33161;BME280;19522;45.656;11.302;2022-12-22T04:01:14;98449.09;;;3.70;95.50
33161;BME280;19522;45.656;11.302;2022-12-22T04:03:39;98380.91;;;3.14;96.84
33161;BME280;19522;45.656;11.302;2022-12-22T04:06:05;98458.84;;;3.71;96.39
33161;BME280;19522;45.656;11.302;2022-12-22T04:08:30;98454.50;;;3.60;96.94
33161;BME280;19522;45.656;11.302;2022-12-22T04:10:56;98443.28;;;3.74;96.33
33161;BME280;19522;45.656;11.302;2022-12-22T04:13:40;98444.09;;;3.85;95.47
33161;BME280;19522;45.656;11.302;2022-12-22T04:16:06;98388.34;;;3.59;95.11
33161;BME280;19522;45.656;11.302;2022-12-22T04:18:31;98427.00;;;3.76;94.98
33161;BME280;19522;45.656;11.302;2022-12-22T04:20:57;98402.47;;;3.51;95.79
33161;BME280;19522;45.656;11.302;2022-12-22T04:23:22;98437.06;;;3.64;95.35
33161;BME280;19522;45.656;11.302;2022-12-22T04:25:48;98445.03;;;3.46;96.57
33161;BME280;19522;45.656;11.302;2022-12-22T04:28:13;98447.09;;;3.62;96.14
33161;BME280;19522;45.656;11.302;2022-12-22T04:30:39;98307.81;;;2.62;96.24
33161;BME280;19522;45.656;11.302;2022-12-22T04:33:04;98446.88;;;3.36;97.36
33161;BME280;19522;45.656;11.302;2022-12-22T04:35:30;98440.09;;;3.02;99.22
33161;BME280;19522;45.656;11.302;2022-12-22T04:37:55;98450.25;;;3.08;100.00
33161;BME280;19522;45.656;11.302;2022-12-22T04:40:21;98443.47;;;3.24;100.00
33161;BME280;19522;45.656;11.302;2022-12-22T04:42:46;98384.88;;;3.00;100.00
33161;BME280;19522;45.656;11.302;2022-12-22T04:45:12;98432.16;;;3.40;99.29
33161;BME280;19522;45.656;11.302;2022-12-22T04:47:37;98399.13;;;3.20;98.78
33161;BME280;19522;45.656;11.302;2022-12-22T04:50:03;98380.47;;;3.18;97.87
33161;BME280;19522;45.656;11.302;2022-12-22T04:52:29;98404.59;;;3.48;96.08
33161;BME280;19522;45.656;11.302;2022-12-22T04:54:55;98411.81;;;3.47;95.53
33161;BME280;19522;45.656;11.302;2022-12-22T04:57:20;98409.00;;;3.39;95.54
33161;BME280;19522;45.656;11.302;2022-12-22T04:59:46;98428.22;;;3.44;95.78
33161;BME280;19522;45.656;11.302;2022-12-22T05:02:12;98446.03;;;3.35;95.95
33161;BME280;19522;45.656;11.302;2022-12-22T05:04:37;98382.34;;;2.78;98.39
33161;BME280;19522;45.656;11.302;2022-12-22T05:07:03;98443.47;;;3.24;98.31
33161;BME280;19522;45.656;11.302;2022-12-22T05:09:29;98455.22;;;3.33;98.04
33161;BME280;19522;45.656;11.302;2022-12-22T05:11:55;98423.28;;;3.20;97.50
33161;BME280;19522;45.656;11.302;2022-12-22T05:14:23;98389.50;;;2.48;98.20
33161;BME280;19522;45.656;11.302;2022-12-22T05:16:48;98459.31;;;2.98;100.00
33161;BME280;19522;45.656;11.302;2022-12-22T05:19:14;98434.16;;;2.89;99.74
33161;BME280;19522;45.656;11.302;2022-12-22T05:21:39;98429.94;;;3.06;98.76
33161;BME280;19522;45.656;11.302;2022-12-22T05:24:05;98412.97;;;2.95;98.51
33161;BME280;19522;45.656;11.302;2022-12-22T05:26:31;98453.25;;;3.35;98.34
33161;BME280;19522;45.656;11.302;2022-12-22T05:28:56;98462.13;;;3.35;97.95
33161;BME280;19522;45.656;11.302;2022-12-22T05:31:23;98437.69;;;2.99;98.31
33161;BME280;19522;45.656;11.302;2022-12-22T05:33:50;98467.28;;;2.68;100.00
33161;BME280;19522;45.656;11.302;2022-12-22T05:36:16;98459.25;;;2.58;100.00
33161;BME280;19522;45.656;11.302;2022-12-22T05:38:43;98458.00;;;2.82;100.00
33161;BME280;19522;45.656;11.302;2022-12-22T05:41:09;98457.00;;;2.73;100.00
33161;BME280;19522;45.656;11.302;2022-12-22T05:43:35;98401.91;;;2.49;100.00
33161;BME280;19522;45.656;11.302;2022-12-22T05:46:10;98445.69;;;2.60;100.00
33161;BME280;19522;45.656;11.302;2022-12-22T05:48:36;98444.28;;;2.75;100.00
33161;BME280;19522;45.656;11.302;2022-12-22T05:51:02;98408.44;;;2.67;100.00
33161;BME280;19522;45.656;11.302;2022-12-22T05:53:27;98389.38;;;2.60;100.00
33161;BME280;19522;45.656;11.302;2022-12-22T05:55:52;98424.56;;;2.96;100.00
33161;BME280;19522;45.656;11.302;2022-12-22T05:58:18;98447.16;;;3.23;100.00
33161;BME280;19522;45.656;11.302;2022-12-22T06:00:44;98409.00;;;3.00;100.00
33161;BME280;19522;45.656;11.302;2022-12-22T06:03:09;98449.28;;;3.19;100.00
33161;BME280;19522;45.656;11.302;2022-12-22T06:05:35;98444.34;;;3.24;100.00
33161;BME280;19522;45.656;11.302;2022-12-22T06:08:00;98444.31;;;3.34;100.00
33161;BME280;19522;45.656;11.302;2022-12-22T06:10:26;98455.19;;;3.03;100.00
33161;BME280;19522;45.656;11.302;2022-12-22T06:12:51;98405.06;;;2.84;100.00
33161;BME280;19522;45.656;11.302;2022-12-22T06:15:17;98439.53;;;3.28;100.00
33161;BME280;19522;45.656;11.302;2022-12-22T06:17:45;98433.88;;;3.41;100.00
33161;BME280;19522;45.656;11.302;2022-12-22T06:20:12;98421.97;;;3.43;100.00
33161;BME280;19522;45.656;11.302;2022-12-22T06:22:38;98425.69;;;3.33;100.00
33161;BME280;19522;45.656;11.302;2022-12-22T06:25:04;98433.28;;;3.47;100.00
33161;BME280;19522;45.656;11.302;2022-12-22T06:27:30;98401.81;;;3.39;100.00
33161;BME280;19522;45.656;11.302;2022-12-22T06:29:55;98366.63;;;3.23;100.00
33161;BME280;19522;45.656;11.302;2022-12-22T06:32:21;98443.03;;;3.58;99.66
33161;BME280;19522;45.656;11.302;2022-12-22T06:34:46;98407.59;;;3.25;99.82
33161;BME280;19522;45.656;11.302;2022-12-22T06:37:12;98442.91;;;3.50;100.00
33161;BME280;19522;45.656;11.302;2022-12-22T06:39:37;98425.56;;;3.24;100.00
33161;BME280;19522;45.656;11.302;2022-12-22T06:42:07;98448.84;;;3.34;100.00
33161;BME280;19522;45.656;11.302;2022-12-22T06:44:51;98438.97;;;3.24;100.00
33161;BME280;19522;45.656;11.302;2022-12-22T06:47:19;98404.22;;;3.13;100.00
33161;BME280;19522;45.656;11.302;2022-12-22T06:49:44;98388.13;;;3.13;100.00
33161;BME280;19522;45.656;11.302;2022-12-22T06:52:10;98438.94;;;3.54;100.00
33161;BME280;19522;45.656;11.302;2022-12-22T06:54:35;98440.19;;;3.59;100.00
33161;BME280;19522;45.656;11.302;2022-12-22T06:57:01;98448.69;;;3.65;100.00
33161;BME280;19522;45.656;11.302;2022-12-22T06:59:26;98385.56;;;3.21;100.00
33161;BME280;19522;45.656;11.302;2022-12-22T07:01:52;98446.00;;;3.55;100.00
33161;BME280;19522;45.656;11.302;2022-12-22T07:04:17;98416.63;;;3.43;100.00
33161;BME280;19522;45.656;11.302;2022-12-22T07:06:48;98459.28;;;3.66;100.00
33161;BME280;19522;45.656;11.302;2022-12-22T07:09:16;98465.50;;;3.57;100.00
33161;BME280;19522;45.656;11.302;2022-12-22T07:11:42;98458.84;;;3.61;100.00
33161;BME280;19522;45.656;11.302;2022-12-22T07:14:08;98466.34;;;3.67;100.00
33161;BME280;19522;45.656;11.302;2022-12-22T07:16:35;98455.16;;;3.62;100.00
33161;BME280;19522;45.656;11.302;2022-12-22T07:19:00;98436.13;;;3.55;100.00
33161;BME280;19522;45.656;11.302;2022-12-22T07:21:26;98409.56;;;3.33;100.00
33161;BME280;19522;45.656;11.302;2022-12-22T07:23:51;98453.47;;;3.61;100.00
33161;BME280;19522;45.656;11.302;2022-12-22T07:26:16;98458.84;;;3.61;100.00
33161;BME280;19522;45.656;11.302;2022-12-22T07:28:42;98451.94;;;3.68;100.00
33161;BME280;19522;45.656;11.302;2022-12-22T07:31:09;98406.28;;;3.58;100.00
33161;BME280;19522;45.656;11.302;2022-12-22T07:33:35;98380.59;;;3.46;100.00
33161;BME280;19522;45.656;11.302;2022-12-22T07:36:09;98450.19;;;3.87;100.00
33161;BME280;19522;45.656;11.302;2022-12-22T07:38:37;98450.75;;;3.81;100.00
33161;BME280;19522;45.656;11.302;2022-12-22T07:41:04;98440.72;;;3.83;100.00
33161;BME280;19522;45.656;11.302;2022-12-22T07:43:52;98416.16;;;3.68;100.00
33161;BME280;19522;45.656;11.302;2022-12-22T07:46:18;98471.91;;;4.03;100.00
33161;BME280;19522;45.656;11.302;2022-12-22T07:48:43;98361.97;;;3.35;100.00
33161;BME280;19522;45.656;11.302;2022-12-22T07:51:32;98465.88;;;3.92;100.00
33161;BME280;19522;45.656;11.302;2022-12-22T07:53:58;98470.22;;;4.02;100.00
33161;BME280;19522;45.656;11.302;2022-12-22T07:56:23;98475.16;;;4.07;100.00
33161;BME280;19522;45.656;11.302;2022-12-22T07:58:49;98396.41;;;3.49;100.00
33161;BME280;19522;45.656;11.302;2022-12-22T08:01:14;98469.00;;;3.87;100.00
33161;BME280;19522;45.656;11.302;2022-12-22T08:03:40;98455.22;;;4.00;100.00
33161;BME280;19522;45.656;11.302;2022-12-22T08:06:05;98473.28;;;4.17;100.00
33161;BME280;19522;45.656;11.302;2022-12-22T08:08:32;98481.59;;;4.24;100.00
33161;BME280;19522;45.656;11.302;2022-12-22T08:11:01;98489.94;;;4.31;100.00
33161;BME280;19522;45.656;11.302;2022-12-22T08:13:27;98402.22;;;3.92;100.00
33161;BME280;19522;45.656;11.302;2022-12-22T08:15:52;98481.53;;;4.44;100.00
33161;BME280;19522;45.656;11.302;2022-12-22T08:18:18;98424.06;;;4.17;99.70
33161;BME280;19522;45.656;11.302;2022-12-22T08:20:50;98479.56;;;4.64;99.26
33161;BME280;19522;45.656;11.302;2022-12-22T08:23:17;98427.69;;;4.26;99.04
33161;BME280;19522;45.656;11.302;2022-12-22T08:25:43;98469.06;;;4.71;99.05
33161;BME280;19522;45.656;11.302;2022-12-22T08:28:10;98438.41;;;4.63;98.02
33161;BME280;19522;45.656;11.302;2022-12-22T08:30:36;98393.97;;;4.31;97.75
33161;BME280;19522;45.656;11.302;2022-12-22T08:33:02;98442.25;;;4.61;97.71
33161;BME280;19522;45.656;11.302;2022-12-22T08:35:28;98451.78;;;4.73;97.69
33161;BME280;19522;45.656;11.302;2022-12-22T08:37:54;98424.03;;;4.73;97.29
33161;BME280;19522;45.656;11.302;2022-12-22T08:40:24;98464.34;;;5.01;97.16
33161;BME280;19522;45.656;11.302;2022-12-22T08:42:54;98439.81;;;4.86;96.77
33161;BME280;19522;45.656;11.302;2022-12-22T08:45:20;98474.03;;;5.11;96.61
33161;BME280;19522;45.656;11.302;2022-12-22T08:47:46;98457.06;;;5.11;95.97
33161;BME280;19522;45.656;11.302;2022-12-22T08:50:11;98453.81;;;5.07;95.94
33161;BME280;19522;45.656;11.302;2022-12-22T08:52:38;98474.06;;;5.29;95.22
33161;BME280;19522;45.656;11.302;2022-12-22T08:55:04;98474.53;;;5.43;94.73
33161;BME280;19522;45.656;11.302;2022-12-22T08:57:29;98473.50;;;5.44;94.28
33161;BME280;19522;45.656;11.302;2022-12-22T08:59:55;98453.75;;;5.35;94.41
33161;BME280;19522;45.656;11.302;2022-12-22T09:02:20;98441.81;;;5.20;95.25
33161;BME280;19522;45.656;11.302;2022-12-22T09:04:46;98455.75;;;5.51;95.15
33161;BME280;19522;45.656;11.302;2022-12-22T09:07:12;98418.31;;;5.48;94.40
33161;BME280;19522;45.656;11.302;2022-12-22T09:09:37;98365.75;;;5.18;93.83
33161;BME280;19522;45.656;11.302;2022-12-22T09:12:03;98441.09;;;5.72;93.15
33161;BME280;19522;45.656;11.302;2022-12-22T09:14:29;98470.19;;;5.95;92.41
33161;BME280;19522;45.656;11.302;2022-12-22T09:16:55;98460.50;;;6.02;91.58
33161;BME280;19522;45.656;11.302;2022-12-22T09:19:21;98453.09;;;6.04;90.70
33161;BME280;19522;45.656;11.302;2022-12-22T09:21:46;98355.69;;;5.46;90.49
33161;BME280;19522;45.656;11.302;2022-12-22T09:24:12;98443.91;;;6.15;90.37
33161;BME280;19522;45.656;11.302;2022-12-22T09:26:37;98441.69;;;6.10;90.32
33161;BME280;19522;45.656;11.302;2022-12-22T09:29:03;98408.31;;;6.11;89.86
33161;BME280;19522;45.656;11.302;2022-12-22T09:31:29;98420.44;;;6.07;89.54
33161;BME280;19522;45.656;11.302;2022-12-22T09:33:56;98389.84;;;5.98;89.51
33161;BME280;19522;45.656;11.302;2022-12-22T09:36:24;98399.91;;;6.14;88.96
33161;BME280;19522;45.656;11.302;2022-12-22T09:38:51;98430.56;;;6.48;88.51
33161;BME280;19522;45.656;11.302;2022-12-22T09:41:32;98428.09;;;6.63;87.83
33161;BME280;19522;45.656;11.302;2022-12-22T09:44:13;98415.78;;;6.68;86.64
33161;BME280;19522;45.656;11.302;2022-12-22T09:46:40;98420.38;;;6.84;86.78
33161;BME280;19522;45.656;11.302;2022-12-22T09:49:06;98415.72;;;7.11;86.19
33161;BME280;19522;45.656;11.302;2022-12-22T09:51:41;98420.78;;;7.47;86.22
33161;BME280;19522;45.656;11.302;2022-12-22T09:54:08;98410.31;;;7.61;84.30
33161;BME280;19522;45.656;11.302;2022-12-22T09:56:35;98387.00;;;7.60;83.03
33161;BME280;19522;45.656;11.302;2022-12-22T09:59:00;98412.94;;;7.94;82.36
33161;BME280;19522;45.656;11.302;2022-12-22T10:01:47;98410.22;;;8.10;80.63
33161;BME280;19522;45.656;11.302;2022-12-22T10:04:38;98401.03;;;8.28;80.76
33161;BME280;19522;45.656;11.302;2022-12-22T10:09:49;98376.06;;;8.89;79.00
33161;BME280;19522;45.656;11.302;2022-12-22T10:12:21;98379.94;;;9.33;78.08
33161;BME280;19522;45.656;11.302;2022-12-22T10:14:49;98388.34;;;9.00;74.87
33161;BME280;19522;45.656;11.302;2022-12-22T10:19:50;98390.63;;;8.88;74.69
33161;BME280;19522;45.656;11.302;2022-12-22T10:22:31;98391.13;;;9.15;74.62
33161;BME280;19522;45.656;11.302;2022-12-22T10:25:01;98381.09;;;8.92;73.90
33161;BME280;19522;45.656;11.302;2022-12-22T10:27:30;98373.47;;;8.96;73.76
33161;BME280;19522;45.656;11.302;2022-12-22T10:30:22;98372.91;;;9.00;74.18
33161;BME280;19522;45.656;11.302;2022-12-22T10:33:06;98372.97;;;8.92;72.87
33161;BME280;19522;45.656;11.302;2022-12-22T10:38:32;98387.22;;;8.06;77.75
33161;BME280;19522;45.656;11.302;2022-12-22T10:41:00;98383.97;;;8.19;77.38
33161;BME280;19522;45.656;11.302;2022-12-22T10:43:37;98379.81;;;8.00;77.59
33161;BME280;19522;45.656;11.302;2022-12-22T10:46:04;98380.03;;;7.82;79.05
33161;BME280;19522;45.656;11.302;2022-12-22T10:48:33;98378.38;;;7.64;80.48
33161;BME280;19522;45.656;11.302;2022-12-22T10:51:00;98383.13;;;7.54;81.64
33161;BME280;19522;45.656;11.302;2022-12-22T10:53:47;98385.94;;;7.86;81.52
33161;BME280;19522;45.656;11.302;2022-12-22T11:01:29;98331.25;;;7.59;79.72
33161;BME280;19522;45.656;11.302;2022-12-22T11:03:56;98375.41;;;8.07;79.57
33161;BME280;19522;45.656;11.302;2022-12-22T11:06:23;98360.28;;;7.65;80.46
33161;BME280;19522;45.656;11.302;2022-12-22T11:08:49;98382.25;;;7.78;81.71
33161;BME280;19522;45.656;11.302;2022-12-22T11:11:58;98378.00;;;7.84;81.21
33161;BME280;19522;45.656;11.302;2022-12-22T11:17:24;98382.97;;;7.39;82.68
33161;BME280;19522;45.656;11.302;2022-12-22T11:23:05;98382.28;;;7.45;84.08
33161;BME280;19522;45.656;11.302;2022-12-22T11:31:54;98353.38;;;8.19;79.86
33161;BME280;19522;45.656;11.302;2022-12-22T11:37:49;98364.16;;;8.67;77.73
33161;BME280;19522;45.656;11.302;2022-12-22T11:40:30;98349.66;;;9.67;74.64
33161;BME280;19522;45.656;11.302;2022-12-22T11:50:49;98332.16;;;11.25;64.60
33161;BME280;19522;45.656;11.302;2022-12-22T11:56:22;98316.75;;;12.31;61.49
33161;BME280;19522;45.656;11.302;2022-12-22T11:59:04;98300.81;;;13.17;59.85
33161;BME280;19522;45.656;11.302;2022-12-22T12:09:35;98212.50;;;13.38;54.27
33161;BME280;19522;45.656;11.302;2022-12-22T12:15:15;98274.91;;;15.23;51.13
33161;BME280;19522;45.656;11.302;2022-12-22T12:30:56;98218.81;;;12.85;56.17
33161;BME280;19522;45.656;11.302;2022-12-22T12:33:37;98275.19;;;12.77;56.89
33161;BME280;19522;45.656;11.302;2022-12-22T12:36:38;98273.91;;;12.60;57.73
33161;BME280;19522;45.656;11.302;2022-12-22T12:39:39;98263.22;;;12.52;57.69
33161;BME280;19522;45.656;11.302;2022-12-22T12:42:23;98270.25;;;11.91;60.53
33161;BME280;19522;45.656;11.302;2022-12-22T12:44:53;98207.94;;;11.61;61.81
33161;BME280;19522;45.656;11.302;2022-12-22T12:47:33;98263.25;;;12.03;60.10
33161;BME280;19522;45.656;11.302;2022-12-22T12:57:56;98256.88;;;12.38;60.12
33161;BME280;19522;45.656;11.302;2022-12-22T13:05:55;98254.00;;;11.34;62.83
33161;BME280;19522;45.656;11.302;2022-12-22T13:08:30;98245.81;;;10.55;65.53
33161;BME280;19522;45.656;11.302;2022-12-22T13:23:36;98237.94;;;9.27;72.36
33161;BME280;19522;45.656;11.302;2022-12-22T13:26:22;98234.66;;;9.47;71.96
33161;BME280;19522;45.656;11.302;2022-12-22T13:28:56;98209.78;;;9.43;71.10
33161;BME280;19522;45.656;11.302;2022-12-22T13:31:42;98244.00;;;9.59;70.68
33161;BME280;19522;45.656;11.302;2022-12-22T13:37:25;98237.81;;;9.20;72.40
33161;BME280;19522;45.656;11.302;2022-12-22T13:40:13;98244.47;;;8.95;73.55
33161;BME280;19522;45.656;11.302;2022-12-22T13:42:53;98234.66;;;8.55;75.16
33161;BME280;19522;45.656;11.302;2022-12-22T13:45:36;98234.94;;;8.61;75.84
33161;BME280;19522;45.656;11.302;2022-12-22T13:48:39;98241.94;;;8.55;77.08
33161;BME280;19522;45.656;11.302;2022-12-22T13:51:17;98243.63;;;8.56;77.31
33161;BME280;19522;45.656;11.302;2022-12-22T13:54:20;98254.19;;;8.89;76.70
33161;BME280;19522;45.656;11.302;2022-12-22T13:56:52;98176.09;;;8.78;75.55
33161;BME280;19522;45.656;11.302;2022-12-22T13:59:38;98238.66;;;9.36;73.52
33161;BME280;19522;45.656;11.302;2022-12-22T14:04:34;98238.28;;;9.24;74.08
33161;BME280;19522;45.656;11.302;2022-12-22T14:07:15;98238.31;;;9.39;73.08
33161;BME280;19522;45.656;11.302;2022-12-22T14:09:45;98242.41;;;9.50;73.13
33161;BME280;19522;45.656;11.302;2022-12-22T14:12:32;98213.59;;;9.19;72.69
33161;BME280;19522;45.656;11.302;2022-12-22T14:15:00;98199.56;;;8.62;74.78
33161;BME280;19522;45.656;11.302;2022-12-22T14:17:33;98208.34;;;8.64;75.68
33161;BME280;19522;45.656;11.302;2022-12-22T14:20:07;98221.69;;;8.66;75.46
33161;BME280;19522;45.656;11.302;2022-12-22T14:22:43;98253.06;;;8.83;76.04
33161;BME280;19522;45.656;11.302;2022-12-22T14:25:18;98246.44;;;8.63;76.92
33161;BME280;19522;45.656;11.302;2022-12-22T14:27:51;98161.31;;;7.64;79.65
33161;BME280;19522;45.656;11.302;2022-12-22T14:30:27;98233.66;;;7.45;83.87
33161;BME280;19522;45.656;11.302;2022-12-22T14:32:55;98264.72;;;7.58;85.51
33161;BME280;19522;45.656;11.302;2022-12-22T14:37:47;98156.91;;;7.23;85.17
33161;BME280;19522;45.656;11.302;2022-12-22T14:40:39;98200.50;;;7.12;87.70
33161;BME280;19522;45.656;11.302;2022-12-22T14:43:29;98268.66;;;7.39;88.93
33161;BME280;19522;45.656;11.302;2022-12-22T14:46:06;98281.84;;;7.25;90.27
33161;BME280;19522;45.656;11.302;2022-12-22T14:48:37;98278.50;;;6.98;91.71
33161;BME280;19522;45.656;11.302;2022-12-22T14:51:03;98282.38;;;7.04;92.41
33161;BME280;19522;45.656;11.302;2022-12-22T14:53:36;98267.84;;;6.80;93.35
33161;BME280;19522;45.656;11.302;2022-12-22T14:56:10;98289.13;;;6.83;93.22
33161;BME280;19522;45.656;11.302;2022-12-22T14:58:39;98289.28;;;7.07;92.79
33161;BME280;19522;45.656;11.302;2022-12-22T15:01:23;98292.69;;;6.92;92.90
33161;BME280;19522;45.656;11.302;2022-12-22T15:04:13;98300.25;;;7.13;92.51
33161;BME280;19522;45.656;11.302;2022-12-22T15:06:42;98252.00;;;6.94;91.66
33161;BME280;19522;45.656;11.302;2022-12-22T15:11:41;98298.38;;;7.39;90.96
33161;BME280;19522;45.656;11.302;2022-12-22T15:14:14;98296.84;;;7.44;90.06
33161;BME280;19522;45.656;11.302;2022-12-22T15:16:40;98262.94;;;7.25;89.19
33161;BME280;19522;45.656;11.302;2022-12-22T15:19:06;98303.75;;;7.55;88.80
33161;BME280;19522;45.656;11.302;2022-12-22T15:21:34;98296.63;;;7.62;88.40
33161;BME280;19522;45.656;11.302;2022-12-22T15:23:59;98306.41;;;7.63;88.07
33161;BME280;19522;45.656;11.302;2022-12-22T15:26:25;98303.91;;;7.62;87.67